Time;durP1;ratioP1;P1;durP2;ratioP2;P2;SDS_P1;SDS_P2;PMS_P1;PMS_P2;Temp;Humidity;BMP_temperature;BMP_pressure;BME280_temperature;BME280_humidity;BME280_pressure;Samples;Min_cycle;Max_cycle;Signal;HPM_P1;HPM_P2
2024/02/08 00:02:44;;;;;;;3.15;2.20;;;23.20;43.40;;;;;;6171566;28;81541;-54
2024/02/08 00:05:45;;;;;;;3.63;2.08;;;23.20;43.30;;;;;;6154172;28;80850;-50
2024/02/08 00:08:45;;;;;;;4.28;2.30;;;23.20;43.40;;;;;;6175303;28;80424;-50
2024/02/08 00:11:46;;;;;;;2.97;1.80;;;23.20;43.40;;;;;;6164214;28;80520;-48
2024/02/08 00:14:47;;;;;;;2.90;2.10;;;23.20;43.30;;;;;;6174711;28;80907;-51
2024/02/08 00:17:48;;;;;;;3.67;2.22;;;23.20;43.20;;;;;;6159145;28;84676;-53
2024/02/08 00:20:48;;;;;;;3.15;2.05;;;23.20;43.30;;;;;;6153540;28;81177;-49
2024/02/08 00:23:49;;;;;;;3.67;2.60;;;23.20;43.30;;;;;;6156481;28;80441;-50
2024/02/08 00:26:49;;;;;;;3.38;2.28;;;23.20;43.30;;;;;;6154698;28;80130;-51
2024/02/08 00:29:50;;;;;;;3.55;2.38;;;23.20;43.30;;;;;;6155511;28;80147;-51
2024/02/08 00:32:51;;;;;;;3.78;2.33;;;23.20;43.40;;;;;;6161808;28;80423;-49
2024/02/08 00:35:51;;;;;;;3.50;2.67;;;23.20;43.30;;;;;;6156298;28;80498;-52
2024/02/08 00:38:51;;;;;;;4.68;2.60;;;23.20;43.30;;;;;;6155983;28;81110;-47
2024/02/08 00:41:57;;;;;;;2.45;2.20;;;23.20;43.30;;;;;;6154820;28;80452;-49
2024/02/08 00:44:58;;;;;;;3.70;2.58;;;23.20;43.30;;;;;;6155300;28;81007;-51
2024/02/08 00:47:59;;;;;;;3.70;2.38;;;23.20;43.20;;;;;;6163516;28;80471;-47
2024/02/08 00:50:59;;;;;;;3.60;2.38;;;23.20;43.30;;;;;;6159085;28;82778;-48
2024/02/08 00:54:00;;;;;;;3.97;2.50;;;23.20;43.20;;;;;;6167494;28;80507;-49
2024/02/08 00:57:00;;;;;;;5.32;2.72;;;23.20;43.20;;;;;;6164910;28;80477;-47
2024/02/08 01:00:01;;;;;;;4.28;2.60;;;23.20;43.30;;;;;;6169756;28;83136;-51
2024/02/08 01:03:02;;;;;;;4.38;2.72;;;23.20;43.20;;;;;;6173581;28;80378;-48
2024/02/08 01:06:02;;;;;;;4.40;2.33;;;23.20;43.20;;;;;;6173759;28;80531;-49
2024/02/08 01:09:03;;;;;;;2.83;2.00;;;23.20;43.20;;;;;;6154655;28;80558;-50
2024/02/08 01:12:04;;;;;;;5.82;2.22;;;23.20;43.20;;;;;;6155423;28;80409;-50
2024/02/08 01:15:05;;;;;;;3.35;1.95;;;23.20;43.60;;;;;;6155815;28;80367;-49
2024/02/08 01:18:05;;;;;;;3.75;2.28;;;23.10;43.20;;;;;;6155770;28;83249;-52
2024/02/08 01:21:06;;;;;;;4.30;2.50;;;23.10;43.30;;;;;;6157155;28;80657;-51
2024/02/08 01:24:06;;;;;;;4.00;2.20;;;23.20;43.30;;;;;;6157812;28;83217;-51
2024/02/08 01:27:07;;;;;;;4.45;2.40;;;23.20;43.40;;;;;;6157302;28;80200;-48
2024/02/08 01:30:08;;;;;;;5.13;2.55;;;23.20;43.00;;;;;;6166682;28;81608;-52
2024/02/08 01:33:11;;;;;;;3.33;2.20;;;23.20;43.00;;;;;;6156529;28;80986;-51
2024/02/08 01:36:13;;;;;;;3.55;2.20;;;23.10;43.10;;;;;;6156492;28;80849;-48
2024/02/08 01:39:16;;;;;;;2.90;2.28;;;23.20;43.00;;;;;;6156446;28;80206;-50
2024/02/08 01:42:17;;;;;;;3.25;2.00;;;23.10;43.00;;;;;;6155440;28;81619;-51
2024/02/08 01:45:18;;;;;;;2.72;1.83;;;23.10;43.00;;;;;;6162637;28;80428;-50
2024/02/08 01:48:18;;;;;;;3.35;2.00;;;23.10;43.10;;;;;;6169910;28;80784;-49
2024/02/08 01:51:22;;;;;;;3.50;1.80;;;23.10;43.00;;;;;;6176991;28;80962;-49
2024/02/08 01:54:23;;;;;;;2.63;1.90;;;23.10;42.90;;;;;;6173036;28;82792;-47
2024/02/08 01:57:23;;;;;;;2.58;2.10;;;23.10;43.00;;;;;;6173991;28;81176;-53
2024/02/08 02:00:24;;;;;;;3.72;2.20;;;23.10;43.00;;;;;;6173762;28;80538;-48
2024/02/08 02:03:24;;;;;;;3.20;2.03;;;23.10;43.10;;;;;;6159929;28;80804;-47
2024/02/08 02:06:26;;;;;;;2.40;1.90;;;23.10;43.00;;;;;;6159516;28;81235;-51
2024/02/08 02:09:30;;;;;;;2.30;1.80;;;23.10;43.00;;;;;;6151550;28;80510;-48
2024/02/08 02:12:30;;;;;;;4.50;2.47;;;23.10;43.00;;;;;;6167315;28;82032;-51
2024/02/08 02:15:33;;;;;;;3.03;1.90;;;23.10;43.00;;;;;;6176898;28;80683;-54
2024/02/08 02:18:34;;;;;;;3.08;1.77;;;23.10;43.10;;;;;;6177114;28;81115;-53
2024/02/08 02:21:34;;;;;;;3.42;1.77;;;23.10;43.00;;;;;;6158912;28;81059;-53
2024/02/08 02:24:36;;;;;;;4.05;2.00;;;23.10;43.00;;;;;;6166572;28;81480;-54
2024/02/08 02:27:40;;;;;;;2.75;1.90;;;23.10;43.00;;;;;;6162570;28;80252;-55
2024/02/08 02:30:44;;;;;;;3.20;1.83;;;23.10;42.90;;;;;;6165606;28;80705;-54
2024/02/08 02:33:46;;;;;;;3.03;1.83;;;23.10;42.90;;;;;;6156322;28;80448;-46
2024/02/08 02:36:51;;;;;;;4.15;2.22;;;23.10;43.00;;;;;;6176176;28;80699;-49
2024/02/08 02:39:52;;;;;;;2.00;1.80;;;23.10;43.60;;;;;;6174988;28;80347;-51
2024/02/08 02:42:54;;;;;;;4.25;2.47;;;23.10;43.10;;;;;;6175709;28;80461;-53
2024/02/08 02:45:55;;;;;;;3.63;2.00;;;23.10;43.00;;;;;;6164499;28;80908;-52
2024/02/08 02:48:56;;;;;;;2.42;1.80;;;23.10;43.10;;;;;;6175149;28;80482;-52
2024/02/08 02:51:59;;;;;;;3.65;2.17;;;23.10;43.00;;;;;;6171538;28;81717;-53
2024/02/08 02:55:00;;;;;;;3.83;1.80;;;23.10;43.10;;;;;;6152469;28;80697;-49
2024/02/08 02:58:00;;;;;;;3.95;2.17;;;23.10;43.20;;;;;;6153106;28;80762;-50
2024/02/08 03:01:07;;;;;;;2.95;2.20;;;23.10;43.10;;;;;;6154471;28;81375;-50
2024/02/08 03:04:07;;;;;;;2.70;1.80;;;23.10;43.10;;;;;;6166241;28;81110;-49
2024/02/08 03:07:10;;;;;;;3.60;2.20;;;23.10;43.10;;;;;;6171154;28;81390;-49
2024/02/08 03:10:11;;;;;;;4.25;1.98;;;23.10;43.10;;;;;;6176021;28;80379;-61
2024/02/08 03:13:12;;;;;;;3.72;2.35;;;23.10;43.10;;;;;;6175915;28;80903;-60
2024/02/08 03:16:16;;;;;;;4.38;1.75;;;23.10;43.10;;;;;;6175985;28;80799;-60
2024/02/08 03:19:17;;;;;;;2.92;1.90;;;23.10;43.00;;;;;;6176557;28;81593;-59
2024/02/08 03:22:18;;;;;;;2.88;1.83;;;23.10;42.90;;;;;;6175137;28;80326;-62
2024/02/08 03:25:21;;;;;;;4.38;2.10;;;23.10;42.80;;;;;;6168053;28;80497;-63
2024/02/08 03:28:23;;;;;;;2.95;2.10;;;23.10;42.60;;;;;;6175425;28;80369;-50
2024/02/08 03:31:26;;;;;;;4.72;2.13;;;23.10;42.80;;;;;;6164282;28;80958;-50
2024/02/08 03:34:29;;;;;;;3.47;2.13;;;23.10;42.70;;;;;;6176568;28;82299;-47
2024/02/08 03:37:30;;;;;;;5.95;2.15;;;23.10;42.80;;;;;;6175137;28;80784;-50
2024/02/08 03:40:34;;;;;;;2.47;1.67;;;23.10;42.80;;;;;;6175011;28;80036;-52
2024/02/08 03:43:34;;;;;;;4.32;1.95;;;23.10;42.90;;;;;;6175374;28;80118;-48
2024/02/08 03:46:36;;;;;;;3.17;2.00;;;23.10;43.00;;;;;;6174857;28;81714;-48
2024/02/08 03:49:37;;;;;;;3.45;2.20;;;23.10;42.90;;;;;;6163212;28;80686;-51
2024/02/08 03:52:38;;;;;;;3.58;1.65;;;23.10;42.90;;;;;;6175105;28;80325;-49
2024/02/08 03:55:38;;;;;;;2.53;1.88;;;23.10;42.80;;;;;;6166104;28;81615;-52
2024/02/08 03:58:39;;;;;;;3.63;2.15;;;23.10;42.80;;;;;;6179884;28;82404;-51
2024/02/08 04:01:43;;;;;;;2.90;2.05;;;23.10;42.60;;;;;;6160871;28;81089;-47
2024/02/08 04:05:06;;;;;;;3.40;2.00;;;23.10;42.70;;;;;;6177295;28;80937;-62
2024/02/08 04:54:37;;;;;;;5.35;2.72;;;23.50;42.30;;;;;;6174354;28;80387;-50
2024/02/08 04:57:39;;;;;;;5.05;2.40;;;23.50;42.60;;;;;;6155263;28;80559;-53
2024/02/08 05:00:39;;;;;;;6.10;2.60;;;23.50;43.10;;;;;;6154238;28;80730;-66
2024/02/08 05:03:42;;;;;;;4.07;1.80;;;23.60;43.20;;;;;;6165180;28;83937;-69
2024/02/08 05:06:44;;;;;;;3.08;2.00;;;23.60;43.00;;;;;;6157549;28;88038;-63
2024/02/08 05:09:45;;;;;;;4.30;2.13;;;23.60;42.60;;;;;;6153843;28;81289;-63
2024/02/08 05:12:47;;;;;;;4.78;2.40;;;23.60;42.70;;;;;;6154175;28;80569;-73
2024/02/08 05:15:48;;;;;;;6.05;2.35;;;23.70;42.60;;;;;;6157671;28;84790;-63
2024/02/08 05:18:53;;;;;;;3.78;2.17;;;23.70;42.30;;;;;;6155151;28;81272;-57
2024/02/08 05:21:54;;;;;;;7.43;2.58;;;23.70;42.40;;;;;;6154651;28;81588;-62
2024/02/08 05:24:54;;;;;;;8.65;2.60;;;23.70;42.80;;;;;;6168099;28;80599;-56
2024/02/08 05:27:55;;;;;;;8.30;1.90;;;23.80;42.80;;;;;;6155338;28;81714;-58
2024/02/08 05:30:55;;;;;;;7.80;2.17;;;23.70;42.60;;;;;;6150057;28;82955;-62
2024/02/08 05:33:57;;;;;;;4.72;1.83;;;23.70;42.50;;;;;;6164301;28;80814;-60
2024/02/08 05:37:01;;;;;;;4.32;2.15;;;23.80;42.40;;;;;;6167078;28;80500;-54
2024/02/08 05:40:02;;;;;;;8.18;2.08;;;23.70;42.30;;;;;;6168167;28;80528;-53
2024/02/08 05:43:02;;;;;;;3.08;1.85;;;23.70;42.30;;;;;;6159630;28;80651;-56
2024/02/08 05:46:03;;;;;;;7.07;2.38;;;23.70;42.10;;;;;;6169146;28;80414;-53
2024/02/08 05:49:11;;;;;;;3.25;2.17;;;23.70;42.00;;;;;;6168316;28;80913;-53
2024/02/08 05:52:13;;;;;;;4.57;2.03;;;23.70;42.00;;;;;;6164488;28;80825;-54
2024/02/08 05:55:14;;;;;;;3.50;1.90;;;23.70;41.90;;;;;;6158019;28;80592;-59
2024/02/08 05:58:18;;;;;;;3.92;2.28;;;23.70;42.00;;;;;;6163300;28;81111;-59
2024/02/08 06:01:23;;;;;;;6.22;2.30;;;23.60;41.60;;;;;;6164266;28;80798;-60
2024/02/08 06:04:24;;;;;;;8.27;2.80;;;23.60;41.40;;;;;;6171925;28;82227;-59
2024/02/08 06:07:29;;;;;;;8.20;2.72;;;23.50;40.50;;;;;;6168044;28;80499;-58
2024/02/08 06:10:52;;;;;;;7.15;3.25;;;23.40;40.00;;;;;;6176759;28;81693;-59
2024/02/08 06:13:52;;;;;;;4.55;3.10;;;23.20;39.90;;;;;;6145401;28;89888;-58
2024/02/08 06:16:57;;;;;;;5.70;2.72;;;23.20;40.20;;;;;;6160396;28;83379;-58
2024/02/08 06:19:57;;;;;;;5.95;3.13;;;23.10;39.90;;;;;;6149758;28;87301;-61
2024/02/08 06:23:01;;;;;;;8.32;2.97;;;23.00;39.70;;;;;;6151898;28;81906;-59
2024/02/08 06:26:27;;;;;;;8.10;3.20;;;23.00;39.50;;;;;;6160316;28;80959;-59
2024/02/08 06:29:26;;;;;;;4.65;2.70;;;22.90;39.50;;;;;;6158255;28;80864;-61
2024/02/08 06:35:35;;;;;;;5.63;2.63;;;23.00;40.30;;;;;;6168622;28;80865;-68
2024/02/08 06:38:51;;;;;;;3.50;2.20;;;23.00;40.40;;;;;;6173193;28;80691;-69
2024/02/08 06:41:52;;;;;;;5.90;2.67;;;23.00;40.40;;;;;;6159859;28;83660;-70
2024/02/08 06:45:24;;;;;;;5.25;2.40;;;23.00;40.30;;;;;;6161451;28;80328;-68
2024/02/08 07:37:44;;;;;;;4.72;3.10;;;22.70;38.80;;;;;;6156793;28;81093;-55
2024/02/08 07:40:45;;;;;;;6.75;3.75;;;22.60;38.70;;;;;;6156036;28;80396;-51
2024/02/08 07:43:54;;;;;;;6.32;3.28;;;22.60;38.70;;;;;;6154375;28;81550;-54
2024/02/08 07:46:54;;;;;;;7.13;3.60;;;22.60;38.60;;;;;;6166478;28;80569;-60
2024/02/08 07:49:57;;;;;;;5.18;3.28;;;22.60;38.60;;;;;;6173244;28;80573;-59
2024/02/08 07:52:58;;;;;;;6.93;3.67;;;22.60;38.50;;;;;;6174949;28;83126;-60
2024/02/08 07:56:18;;;;;;;4.78;2.90;;;22.60;38.50;;;;;;6155732;28;81073;-59
2024/02/08 07:59:26;;;;;;;7.25;2.95;;;22.60;38.50;;;;;;6156609;28;80415;-60
2024/02/08 08:02:29;;;;;;;6.45;3.63;;;22.50;38.50;;;;;;6166565;28;81962;-59
2024/02/08 08:05:33;;;;;;;8.20;4.32;;;22.50;39.10;;;;;;6175597;28;81713;-55
2024/02/08 08:08:36;;;;;;;4.97;3.00;;;22.50;38.50;;;;;;6164372;28;80464;-54
2024/02/08 08:11:39;;;;;;;7.00;3.40;;;22.50;38.50;;;;;;6158218;28;80553;-54
2024/02/08 08:17:42;;;;;;;7.55;3.33;;;22.50;38.40;;;;;;6155923;28;81561;-53
2024/02/08 08:20:58;;;;;;;5.85;3.33;;;22.50;38.40;;;;;;6155670;28;81543;-53
2024/02/08 08:24:02;;;;;;;5.38;3.20;;;22.50;38.40;;;;;;6155637;28;85207;-67
2024/02/08 08:30:28;;;;;;;4.95;3.33;;;22.50;39.70;;;;;;6155917;28;80423;-67
2024/02/08 08:37:38;;;;;;;6.70;3.33;;;22.50;39.10;;;;;;6129561;28;80469;-67
2024/02/08 08:40:37;;;;;;;5.60;3.67;;;22.60;39.00;;;;;;6163077;28;82455;-67
2024/02/08 08:43:43;;;;;;;7.93;3.50;;;22.70;38.80;;;;;;6159494;28;80568;-70
2024/02/08 08:46:44;;;;;;;6.75;3.70;;;22.70;38.70;;;;;;6159724;28;80399;-69
2024/02/08 08:49:50;;;;;;;6.00;3.65;;;22.80;38.60;;;;;;6156089;28;81975;-71
2024/02/08 08:52:57;;;;;;;6.93;4.00;;;22.90;38.50;;;;;;6173116;28;80630;-66
2024/02/08 08:56:03;;;;;;;7.03;4.10;;;22.90;38.20;;;;;;6167888;28;80394;-67
2024/02/08 08:59:04;;;;;;;6.10;3.75;;;22.90;38.20;;;;;;6175556;28;82896;-52
2024/02/08 09:02:05;;;;;;;5.03;3.47;;;23.00;38.20;;;;;;6158849;28;80376;-52
2024/02/08 09:05:09;;;;;;;6.75;4.22;;;23.00;38.20;;;;;;6170839;28;81058;-54
2024/02/08 09:08:10;;;;;;;7.15;4.25;;;23.00;38.10;;;;;;6176393;28;80482;-52
2024/02/08 09:11:14;;;;;;;5.47;4.18;;;23.00;38.10;;;;;;6180473;28;80560;-55
2024/02/08 09:14:16;;;;;;;7.60;4.10;;;23.10;38.10;;;;;;6167148;28;81475;-55
2024/02/08 09:17:25;;;;;;;6.65;3.85;;;23.10;38.10;;;;;;6162341;28;80348;-53
2024/02/08 09:20:28;;;;;;;6.07;3.78;;;23.10;37.90;;;;;;6171026;28;80399;-56
2024/02/08 09:23:29;;;;;;;10.18;5.15;;;23.10;37.90;;;;;;6180215;28;80279;-56
2024/02/08 09:26:46;;;;;;;6.68;4.13;;;23.20;37.80;;;;;;6180628;28;80755;-56
2024/02/08 09:30:08;;;;;;;6.10;3.63;;;23.20;37.80;;;;;;6169175;28;80285;-54
2024/02/08 09:33:14;;;;;;;7.35;3.70;;;23.20;37.70;;;;;;6165535;28;83873;-56
2024/02/08 09:36:14;;;;;;;5.80;3.50;;;23.20;37.60;;;;;;6181222;28;80732;-68
2024/02/08 09:39:15;;;;;;;5.53;3.45;;;23.20;37.60;;;;;;6169018;28;81745;-65
2024/02/08 09:42:15;;;;;;;6.72;3.80;;;23.20;37.50;;;;;;6170831;28;82807;-66
2024/02/08 09:48:37;;;;;;;6.15;3.85;;;23.20;37.50;;;;;;6169398;28;80293;-65
2024/02/08 09:51:40;;;;;;;6.88;3.58;;;23.20;37.50;;;;;;6173193;28;81517;-69
2024/02/08 09:54:46;;;;;;;9.18;3.70;;;23.20;37.30;;;;;;6176454;28;81512;-66
2024/02/08 09:57:46;;;;;;;6.75;4.00;;;23.30;37.30;;;;;;6166373;28;82763;-66
2024/02/08 10:00:57;;;;;;;7.18;3.50;;;23.20;37.20;;;;;;6152113;28;81502;-66
2024/02/08 10:04:04;;;;;;;5.53;3.28;;;23.30;37.10;;;;;;6168142;28;80631;-65
2024/02/08 10:07:06;;;;;;;5.82;3.65;;;23.20;37.00;;;;;;6162407;28;80789;-65
2024/02/08 10:10:17;;;;;;;7.00;4.13;;;23.30;37.00;;;;;;6170940;28;80398;-64
2024/02/08 10:13:26;;;;;;;5.45;3.70;;;23.30;36.90;;;;;;6169244;28;80883;-54
2024/02/08 10:16:30;;;;;;;7.70;4.38;;;23.30;37.00;;;;;;6164580;28;81319;-53
2024/02/08 10:19:47;;;;;;;6.45;3.85;;;23.20;36.80;;;;;;6175275;28;80338;-52
2024/02/08 10:22:54;;;;;;;7.60;3.90;;;23.20;37.00;;;;;;6177291;28;81473;-56
2024/02/08 10:29:17;;;;;;;6.18;3.72;;;23.20;36.90;;;;;;6173064;28;80221;-53
2024/02/08 10:32:19;;;;;;;6.75;4.15;;;23.20;36.90;;;;;;6158690;28;80355;-53
2024/02/08 10:35:21;;;;;;;5.40;3.85;;;23.20;36.90;;;;;;6159320;28;80458;-54
2024/02/08 10:38:32;;;;;;;6.85;4.05;;;23.30;37.00;;;;;;6164569;28;80084;-55
2024/02/08 10:41:44;;;;;;;6.90;4.30;;;23.20;36.80;;;;;;6164101;28;80287;-52
2024/02/08 10:44:45;;;;;;;5.65;3.92;;;23.30;36.80;;;;;;6164604;28;80549;-50
2024/02/08 10:47:47;;;;;;;5.35;4.00;;;23.30;36.70;;;;;;6169173;28;81060;-54
2024/02/08 10:50:49;;;;;;;6.10;3.60;;;23.30;36.70;;;;;;6164316;28;84956;-55
2024/02/08 10:54:04;;;;;;;5.45;3.92;;;23.30;36.70;;;;;;6170798;28;80440;-51
2024/02/08 10:57:09;;;;;;;7.30;4.10;;;23.30;36.70;;;;;;6172150;28;80573;-54
2024/02/08 11:00:49;;;;;;;6.63;4.07;;;23.30;36.80;;;;;;6163925;28;80324;-51
2024/02/08 11:03:42;;;;;;;10.20;4.00;;;23.30;37.20;;;;;;6169755;28;81321;-53
2024/02/08 11:06:54;;;;;;;6.05;3.78;;;23.30;37.10;;;;;;6178256;28;80397;-53
2024/02/08 11:09:58;;;;;;;6.78;3.83;;;23.40;37.20;;;;;;6166011;28;80433;-53
2024/02/08 11:13:00;;;;;;;6.90;3.33;;;23.30;37.20;;;;;;6160836;28;87384;-53
2024/02/08 11:16:19;;;;;;;4.75;3.40;;;23.30;37.20;;;;;;6165418;28;86811;-51
2024/02/08 11:19:20;;;;;;;5.55;2.97;;;23.30;37.20;;;;;;6174462;28;80536;-53
2024/02/08 11:22:42;;;;;;;7.95;3.53;;;23.30;37.30;;;;;;6175029;28;81021;-54
2024/02/08 11:25:44;;;;;;;5.72;3.22;;;23.30;37.20;;;;;;6161707;28;80905;-54
2024/02/08 11:28:47;;;;;;;5.43;3.05;;;23.40;37.20;;;;;;6160510;28;82000;-51
2024/02/08 11:31:48;;;;;;;4.97;3.13;;;23.30;37.30;;;;;;6169433;28;80140;-56
2024/02/08 11:34:54;;;;;;;3.85;2.80;;;23.40;37.30;;;;;;6168735;28;83131;-55
2024/02/08 11:37:56;;;;;;;6.18;2.97;;;23.40;37.30;;;;;;6172893;28;80401;-54
2024/02/08 11:40:57;;;;;;;7.18;3.17;;;23.40;37.40;;;;;;6175665;28;80494;-54
2024/02/08 11:44:02;;;;;;;4.40;2.40;;;23.40;37.40;;;;;;6173841;28;80701;-68
2024/02/08 11:47:17;;;;;;;4.15;2.58;;;23.40;37.30;;;;;;6177529;28;80624;-68
2024/02/08 11:50:19;;;;;;;4.33;2.40;;;23.40;37.40;;;;;;6161238;28;80945;-75
2024/02/08 11:53:20;;;;;;;3.42;2.42;;;23.40;37.30;;;;;;6170973;28;81816;-70
2024/02/08 11:56:20;;;;;;;6.22;2.92;;;23.40;37.40;;;;;;6166698;28;82948;-71
2024/02/08 11:59:23;;;;;;;4.18;2.58;;;23.40;37.30;;;;;;6172442;28;83687;-69
2024/02/08 12:02:27;;;;;;;3.95;2.80;;;23.40;37.40;;;;;;6176730;28;80308;-55
2024/02/08 12:05:27;;;;;;;5.80;3.10;;;23.40;37.30;;;;;;6177152;28;81906;-55
2024/02/08 12:08:28;;;;;;;3.88;2.63;;;23.40;37.30;;;;;;6166367;28;80148;-55
2024/02/08 12:11:32;;;;;;;3.58;2.60;;;23.40;37.40;;;;;;6174617;28;81130;-50
2024/02/08 12:14:33;;;;;;;4.38;2.83;;;23.40;37.40;;;;;;6178910;28;80387;-54
2024/02/08 12:17:33;;;;;;;3.88;2.28;;;23.40;37.40;;;;;;6181238;28;80444;-53
2024/02/08 12:20:36;;;;;;;3.88;2.58;;;23.40;37.40;;;;;;6181382;28;81238;-54
2024/02/08 12:23:36;;;;;;;4.43;2.50;;;23.40;37.60;;;;;;6181549;28;81592;-55
2024/02/08 12:26:38;;;;;;;4.90;2.80;;;23.50;37.60;;;;;;6169669;28;80617;-54
2024/02/08 12:29:39;;;;;;;4.13;2.75;;;23.50;37.50;;;;;;6165799;28;80253;-54
2024/02/08 12:32:39;;;;;;;5.03;3.50;;;23.50;37.50;;;;;;6177564;28;80880;-52
2024/02/08 12:35:42;;;;;;;11.13;4.38;;;23.50;37.80;;;;;;6170920;28;80143;-54
2024/02/08 12:38:43;;;;;;;14.45;7.40;;;23.40;37.80;;;;;;6172086;28;80382;-55
2024/02/08 12:41:43;;;;;;;22.58;12.57;;;23.50;38.90;;;;;;6168820;28;81611;-56
2024/02/08 12:44:50;;;;;;;32.05;17.45;;;23.50;39.60;;;;;;6169584;28;83280;-54
2024/02/08 12:47:51;;;;;;;35.35;21.60;;;23.50;42.00;;;;;;6172617;28;88148;-54
2024/02/08 12:50:52;;;;;;;31.75;21.77;;;23.40;41.40;;;;;;6171591;28;83182;-57
2024/02/08 12:53:53;;;;;;;31.23;22.27;;;23.40;41.40;;;;;;6165412;28;86769;-55
2024/02/08 12:56:53;;;;;;;27.50;20.77;;;23.40;41.90;;;;;;6158419;28;87021;-54
2024/02/08 12:59:54;;;;;;;32.10;20.63;;;23.40;42.20;;;;;;6163744;28;82887;-67
2024/02/08 13:02:54;;;;;;;31.58;21.38;;;23.40;42.60;;;;;;6165227;28;82870;-67
2024/02/08 13:05:55;;;;;;;33.00;21.73;;;23.30;42.70;;;;;;6177001;28;82901;-66
2024/02/08 13:08:55;;;;;;;44.53;23.85;;;23.30;42.80;;;;;;6174905;28;83248;-67
2024/02/08 13:11:56;;;;;;;48.17;28.30;;;23.30;43.00;;;;;;6154420;28;82892;-67
2024/02/08 13:15:05;;;;;;;49.88;31.67;;;23.20;43.20;;;;;;6153705;28;85826;-67
2024/02/08 13:18:09;;;;;;;46.05;33.67;;;23.20;43.20;;;;;;6154182;28;82916;-63
2024/02/08 13:21:10;;;;;;;49.42;34.33;;;23.20;43.30;;;;;;6172879;28;83001;-64
2024/02/08 13:24:10;;;;;;;44.60;33.17;;;23.10;43.30;;;;;;6155441;28;83384;-65
2024/02/08 13:27:11;;;;;;;26.88;21.95;;;23.10;43.90;;;;;;6152948;28;85082;-59
2024/02/08 13:30:15;;;;;;;25.77;17.55;;;23.00;41.30;;;;;;6158828;28;83910;-59
2024/02/08 13:33:17;;;;;;;19.92;12.27;;;22.80;41.00;;;;;;6157802;28;83001;-58
2024/02/08 13:36:19;;;;;;;10.45;7.40;;;22.50;40.20;;;;;;6165424;28;83212;-59
2024/02/08 13:39:25;;;;;;;13.95;6.93;;;22.20;39.60;;;;;;6164941;28;83105;-58
2024/02/08 13:42:28;;;;;;;13.03;7.40;;;21.90;39.40;;;;;;6165296;28;80504;-58
2024/02/08 13:45:29;;;;;;;12.27;6.13;;;21.90;40.70;;;;;;6166809;28;80704;-57
2024/02/08 13:48:30;;;;;;;9.82;6.40;;;22.10;41.00;;;;;;6156363;28;81436;-58
2024/02/08 13:51:30;;;;;;;7.05;5.40;;;22.20;41.20;;;;;;6155792;28;80956;-56
2024/02/08 13:54:31;;;;;;;8.32;5.90;;;22.20;41.10;;;;;;6176837;28;80170;-56
2024/02/08 13:57:32;;;;;;;8.73;5.55;;;22.30;41.40;;;;;;6172063;28;81615;-55
2024/02/08 14:00:32;;;;;;;8.88;4.90;;;22.40;41.80;;;;;;6169557;28;83411;-56
2024/02/08 14:03:34;;;;;;;7.95;5.57;;;22.40;42.00;;;;;;6172882;28;81323;-58
2024/02/08 14:06:41;;;;;;;7.45;5.28;;;22.40;42.10;;;;;;6177258;28;81061;-56
2024/02/08 14:09:43;;;;;;;8.75;5.47;;;22.40;42.40;;;;;;6169266;28;82616;-58
2024/02/08 14:12:48;;;;;;;8.25;4.68;;;22.40;42.60;;;;;;6158107;28;86586;-55
2024/02/08 14:15:49;;;;;;;8.13;4.78;;;22.50;43.70;;;;;;6169818;28;80817;-55
2024/02/08 14:18:51;;;;;;;7.90;4.30;;;22.50;43.10;;;;;;6164642;28;80325;-56
2024/02/08 14:21:54;;;;;;;7.68;4.00;;;22.50;43.50;;;;;;6163280;28;80863;-54
2024/02/08 14:24:54;;;;;;;7.60;4.47;;;22.50;44.30;;;;;;6168485;28;80503;-55
2024/02/08 14:27:55;;;;;;;10.18;3.97;;;22.50;44.20;;;;;;6171611;28;80629;-56
2024/02/08 14:30:55;;;;;;;5.88;3.70;;;22.50;44.00;;;;;;6154630;28;80878;-54
2024/02/08 14:33:56;;;;;;;9.88;4.35;;;22.50;45.40;;;;;;6159303;28;81655;-54
2024/02/08 14:36:57;;;;;;;6.70;4.20;;;22.50;45.40;;;;;;6158967;28;80697;-52
2024/02/08 14:39:58;;;;;;;5.05;3.60;;;22.50;44.90;;;;;;6157276;28;80369;-51
2024/02/08 14:42:58;;;;;;;7.93;3.83;;;22.50;44.90;;;;;;6158122;28;81083;-53
2024/02/08 14:45:59;;;;;;;7.30;3.40;;;22.60;44.70;;;;;;6158080;28;80820;-52
2024/02/08 14:49:05;;;;;;;6.10;3.72;;;22.60;45.20;;;;;;6165181;28;80983;-61
2024/02/08 14:52:14;;;;;;;6.05;3.65;;;22.70;45.80;;;;;;6164315;28;80628;-64
2024/02/08 14:55:21;;;;;;;4.30;3.40;;;22.70;46.00;;;;;;6163019;28;80559;-60
2024/02/08 14:58:33;;;;;;;4.18;3.35;;;22.80;46.00;;;;;;6175943;28;81554;-63
2024/02/08 15:01:42;;;;;;;4.68;3.08;;;22.80;46.00;;;;;;6175624;28;80234;-63
2024/02/08 15:04:45;;;;;;;5.28;3.58;;;22.80;45.90;;;;;;6174816;28;81673;-63
2024/02/08 15:07:51;;;;;;;6.45;3.47;;;22.90;45.90;;;;;;6159131;28;80975;-61
2024/02/08 15:11:08;;;;;;;5.70;3.03;;;22.90;45.90;;;;;;6165759;28;80806;-61
2024/02/08 15:14:16;;;;;;;8.30;3.75;;;22.90;45.80;;;;;;6156145;28;81664;-59
2024/02/08 15:17:18;;;;;;;5.50;3.53;;;23.00;45.60;;;;;;6163317;28;80477;-60
2024/02/08 15:20:43;;;;;;;4.93;3.35;;;23.00;45.40;;;;;;6176052;28;80441;-63
2024/02/08 15:24:18;;;;;;;6.00;3.75;;;23.00;45.70;;;;;;6176360;28;80662;-62
2024/02/08 15:27:18;;;;;;;6.55;3.35;;;23.00;45.60;;;;;;6174938;28;84580;-62
2024/02/08 15:30:19;;;;;;;8.07;3.55;;;23.00;45.40;;;;;;6171457;28;80661;-65
2024/02/08 15:33:29;;;;;;;4.03;3.20;;;23.10;45.50;;;;;;6162126;28;80972;-65
2024/02/08 15:36:34;;;;;;;4.15;3.10;;;23.10;45.50;;;;;;6153159;28;80812;-68
2024/02/08 15:42:37;;;;;;;5.75;3.00;;;23.10;45.20;;;;;;6153412;28;80785;-64
2024/02/08 15:45:41;;;;;;;4.43;2.92;;;23.10;45.40;;;;;;6152667;28;82856;-62
2024/02/08 15:48:44;;;;;;;8.57;3.35;;;23.10;45.20;;;;;;6152427;28;81714;-64
2024/02/08 15:51:49;;;;;;;4.65;2.97;;;23.10;45.20;;;;;;6171823;28;82819;-63
2024/02/08 15:54:57;;;;;;;4.60;2.78;;;23.10;45.40;;;;;;6177580;28;80667;-62
2024/02/08 15:58:16;;;;;;;4.43;3.13;;;23.20;45.30;;;;;;6149349;28;82151;-66
2024/02/08 16:04:49;;;;;;;6.30;3.47;;;23.20;45.10;;;;;;6163731;28;83273;-52
2024/02/08 16:07:57;;;;;;;6.22;3.20;;;23.20;45.20;;;;;;6163522;28;83400;-55
2024/02/08 16:11:05;;;;;;;4.45;2.90;;;23.20;45.30;;;;;;6168522;28;82486;-56
2024/02/08 16:14:15;;;;;;;4.93;3.33;;;23.20;45.40;;;;;;6168597;28;80698;-56
2024/02/08 16:20:36;;;;;;;5.70;3.03;;;23.20;45.20;;;;;;6158403;28;82562;-55
2024/02/08 16:23:47;;;;;;;4.75;2.97;;;23.20;45.60;;;;;;6167538;28;82574;-56
2024/02/08 16:26:56;;;;;;;3.80;2.90;;;23.20;45.40;;;;;;6173577;28;82032;-57
2024/02/08 16:30:05;;;;;;;4.40;2.83;;;23.20;45.30;;;;;;6174331;28;83897;-53
2024/02/08 16:33:09;;;;;;;3.72;2.95;;;23.30;45.30;;;;;;6158132;28;80393;-57
2024/02/08 16:36:21;;;;;;;4.65;3.22;;;23.30;45.20;;;;;;6174843;28;80611;-52
2024/02/08 16:39:29;;;;;;;4.93;2.80;;;23.40;45.30;;;;;;6157373;28;83486;-59
2024/02/08 16:42:34;;;;;;;6.35;2.70;;;23.30;45.10;;;;;;6165852;28;80355;-59
2024/02/08 16:45:35;;;;;;;5.33;3.03;;;23.40;45.30;;;;;;6167153;28;83466;-60
2024/02/08 16:48:44;;;;;;;6.57;3.25;;;23.40;45.20;;;;;;6153885;28;84918;-59
2024/02/08 16:51:45;;;;;;;8.20;3.25;;;23.40;45.50;;;;;;6149717;28;84201;-56
2024/02/08 16:54:58;;;;;;;6.90;3.33;;;23.40;45.70;;;;;;6175142;28;80382;-60
2024/02/08 16:58:16;;;;;;;4.80;3.10;;;23.50;45.90;;;;;;6158266;28;80849;-58
2024/02/08 17:01:28;;;;;;;4.47;3.22;;;23.50;46.00;;;;;;6173609;28;80789;-59
2024/02/08 17:04:48;;;;;;;6.40;2.60;;;23.50;46.10;;;;;;6171362;28;85885;-59
2024/02/08 17:07:51;;;;;;;7.60;3.35;;;23.50;45.90;;;;;;6162862;28;81089;-59
2024/02/08 17:11:01;;;;;;;3.63;2.95;;;23.50;45.60;;;;;;6163920;28;80847;-60
2024/02/08 17:14:03;;;;;;;5.22;3.25;;;23.60;45.50;;;;;;6150997;28;83864;-58
2024/02/08 17:17:13;;;;;;;6.70;3.10;;;23.50;45.30;;;;;;6148044;28;86561;-59
2024/02/08 17:20:37;;;;;;;3.53;2.92;;;23.60;45.30;;;;;;6161546;28;83037;-56
2024/02/08 17:23:53;;;;;;;6.30;3.20;;;23.50;45.40;;;;;;6170865;28;80590;-58
2024/02/08 17:27:02;;;;;;;4.72;3.17;;;23.60;45.20;;;;;;6144352;28;85077;-56
2024/02/08 17:30:06;;;;;;;4.40;3.05;;;23.60;44.90;;;;;;6169065;28;87509;-57
2024/02/08 17:33:11;;;;;;;8.73;3.25;;;23.50;44.60;;;;;;6153983;28;80469;-66
2024/02/08 17:36:13;;;;;;;4.55;3.35;;;23.60;45.20;;;;;;6174905;28;80554;-67
2024/02/08 17:39:24;;;;;;;9.98;3.50;;;23.60;45.40;;;;;;6174157;28;80640;-63
2024/02/08 17:42:27;;;;;;;7.53;3.60;;;23.60;44.80;;;;;;6157601;28;84819;-64
2024/02/08 17:45:47;;;;;;;6.85;3.20;;;23.60;44.90;;;;;;6146519;28;80518;-61
2024/02/08 17:48:50;;;;;;;9.73;3.85;;;23.60;45.30;;;;;;6168639;28;81466;-63
2024/02/08 17:51:56;;;;;;;5.32;3.70;;;23.60;45.60;;;;;;6159697;28;84082;-60
2024/02/08 17:54:59;;;;;;;;;;;23.70;46.50;;;;;;6156051;28;81725;-59
2024/02/08 17:58:01;;;;;;;5.25;3.53;;;23.60;46.20;;;;;;6171405;28;80306;-60
2024/02/08 18:01:15;;;;;;;4.22;3.47;;;23.60;45.60;;;;;;6172104;28;85783;-59
2024/02/08 18:04:16;;;;;;;5.65;3.80;;;23.70;45.10;;;;;;6165191;28;81295;-58